KPPF/PPF METAR and TAF weather

Enter ICAO airport designator
Station Type Date Time Source
KPPF METAR 2019/10/15 18:52 UTC NOAA

KPPF 151852Z AUTO 01009G16KT 10SM OVC032 17/15 A2995 RMK AO2 RAE1758 SLP136 P0000 T01720150


Station Type Date Time Source
KPPF Decoded METAR 2019/10/15 18:52 UTC NOAA

PARSONS TRI-CITY AIRPORT, KS, United States (KPPF) 37-20N 95-30W 274M
Oct 15, 2019 - 02:52 PM EDT / 2019.10.15 1852 UTC
Wind: from the N (010 degrees) at 10 MPH (9 KT) gusting to 18 MPH (16 KT):0
Visibility: 10 mile(s):0
Sky conditions: overcast
Precipitation last hour: A trace
Temperature: 63.0 F (17.2 C)
Dew Point: 59.0 F (15.0 C)
Relative Humidity: 86%
Pressure (altimeter): 29.95 in. Hg (1014 hPa)
ob: KPPF 151852Z AUTO 01009G16KT 10SM OVC032 17/15 A2995 RMK AO2 RAE1758 SLP136 P0000 T01720150
cycle: 19

Station Type Date Time Source
KPPF TAF UTC NOAA

Error!

Example: see airport list